Time;durP1;ratioP1;P1;durP2;ratioP2;P2;SDS_P1;SDS_P2;PMS_P1;PMS_P2;Temp;Humidity;BMP_temperature;BMP_pressure;BME280_temperature;BME280_humidity;BME280_pressure;Samples;Min_cycle;Max_cycle;Signal;HPM_P1;HPM_P2
2023/06/28 00:01:18;;;;;;;0.20;0.20;;;;;;;15.81;72.46;99112.84;5070690;28;20048;-73
2023/06/28 00:03:47;;;;;;;0.20;0.20;;;;;;;15.82;72.61;99113.69;5081930;28;20553;-74
2023/06/28 00:06:13;;;;;;;0.20;0.20;;;;;;;15.86;72.21;99109.94;5084543;28;20044;-73
2023/06/28 00:08:42;;;;;;;0.20;0.20;;;;;;;15.84;71.85;99116.91;5082591;28;20069;-73
2023/06/28 00:11:08;;;;;;;0.10;0.10;;;;;;;15.84;72.40;99125.19;5048069;28;20511;-73
2023/06/28 00:13:35;;;;;;;0.20;0.20;;;;;;;15.86;72.33;99117.38;5081693;28;20055;-73
2023/06/28 00:16:01;;;;;;;0.10;0.10;;;;;;;15.91;72.47;99127.47;5065629;28;20091;-73
2023/06/28 00:18:29;;;;;;;0.20;0.20;;;;;;;15.78;73.07;99110.75;5086625;28;20044;-74
2023/06/28 00:20:57;;;;;;;0.20;0.20;;;;;;;15.85;73.79;99129.56;5081991;28;20052;-73
2023/06/28 00:23:23;;;;;;;0.20;0.20;;;;;;;15.77;73.76;99124.88;5090380;28;20164;-73
2023/06/28 00:25:49;;;;;;;0.20;0.20;;;;;;;15.67;73.79;99123.25;5100878;28;20502;-73
2023/06/28 00:28:16;;;;;;;0.20;0.20;;;;;;;15.54;73.86;99114.84;5103536;28;20050;-74
2023/06/28 00:30:42;;;;;;;0.20;0.20;;;;;;;15.48;74.06;99115.34;5103501;28;20069;-73
2023/06/28 00:33:08;;;;;;;0.10;0.10;;;;;;;15.39;74.71;99123.59;5103609;28;20653;-73
2023/06/28 00:35:35;;;;;;;0.20;0.20;;;;;;;15.27;75.35;99113.19;5102360;28;20514;-73
2023/06/28 00:38:02;;;;;;;0.10;0.10;;;;;;;15.29;76.27;99117.25;5055724;28;20561;-73
2023/06/28 00:40:28;;;;;;;0.20;0.20;;;;;;;15.34;76.33;99110.78;5073731;28;20451;-72
2023/06/28 00:42:55;;;;;;;0.20;0.20;;;;;;;15.35;76.78;99119.84;5045878;28;20052;-73
2023/06/28 00:45:21;;;;;;;0.20;0.20;;;;;;;15.26;76.90;99115.16;5081838;28;20130;-73
2023/06/28 00:47:49;;;;;;;0.10;0.10;;;;;;;15.21;77.31;99106.25;5086668;28;20044;-74
2023/06/28 00:50:17;;;;;;;0.10;0.10;;;;;;;15.21;77.68;99103.50;5065587;28;20414;-73
2023/06/28 00:52:43;;;;;;;0.10;0.10;;;;;;;15.19;77.86;99106.56;5089821;28;20128;-73
2023/06/28 00:55:11;;;;;;;0.20;0.20;;;;;;;15.17;78.24;99111.56;5103889;28;20043;-73
2023/06/28 00:57:38;;;;;;;0.10;0.10;;;;;;;15.14;78.33;99115.81;5090391;27;20471;-74
2023/06/28 01:00:12;;;;;;;0.20;0.20;;;;;;;15.17;78.61;99109.66;5081427;28;20451;-73
2023/06/28 01:02:41;;;;;;;0.20;0.20;;;;;;;15.11;78.64;99110.91;5081108;28;20032;-72
2023/06/28 01:05:11;;;;;;;0.20;0.20;;;;;;;15.13;78.86;99116.91;5100066;28;20050;-73
2023/06/28 01:07:37;;;;;;;;;;;;;;;15.11;79.02;99121.13;5093185;28;20511;-71
2023/06/28 01:10:05;;;;;;;0.10;0.10;;;;;;;15.08;79.16;99113.53;5080509;28;19924;-72
2023/06/28 01:12:35;;;;;;;0.20;0.20;;;;;;;15.08;79.26;99121.78;5081128;28;20518;-73
2023/06/28 01:15:03;;;;;;;0.20;0.20;;;;;;;15.06;79.60;99115.78;5092668;28;20138;-72
2023/06/28 01:17:32;;;;;;;0.10;0.10;;;;;;;15.12;79.45;99120.00;5081763;28;20071;-73
2023/06/28 01:19:59;;;;;;;0.17;0.17;;;;;;;15.11;79.03;99129.41;5063694;28;20051;-73
2023/06/28 01:22:26;;;;;;;0.10;0.10;;;;;;;15.06;79.20;99126.78;5073568;28;20088;-73
2023/06/28 01:24:56;;;;;;;0.20;0.20;;;;;;;15.01;79.34;99123.06;5084804;28;20131;-71
2023/06/28 01:27:23;;;;;;;0.10;0.10;;;;;;;15.03;79.30;99120.00;5081135;28;20044;-73
2023/06/28 01:29:56;;;;;;;0.20;0.20;;;;;;;15.04;78.96;99121.63;5080555;28;20117;-75
2023/06/28 01:32:23;;;;;;;0.10;0.10;;;;;;;14.98;79.10;99123.72;5083631;28;20514;-72
2023/06/28 01:34:49;;;;;;;0.10;0.10;;;;;;;14.96;79.24;99123.22;5083493;28;20687;-74
2023/06/28 01:37:17;;;;;;;0.10;0.10;;;;;;;14.97;79.35;99127.59;5082942;28;20036;-74
2023/06/28 01:39:45;;;;;;;0.20;0.20;;;;;;;14.98;79.41;99128.38;5080341;28;20067;-73
2023/06/28 01:42:14;;;;;;;0.20;0.20;;;;;;;14.97;79.23;99126.75;5081379;28;20044;-73
2023/06/28 01:44:40;;;;;;;0.20;0.20;;;;;;;14.93;79.33;99129.38;5084208;28;20051;-73
2023/06/28 01:47:07;;;;;;;0.10;0.10;;;;;;;14.86;79.44;99127.09;5062509;28;20107;-72
2023/06/28 01:49:33;;;;;;;0.20;0.20;;;;;;;14.86;79.95;99132.59;5062845;28;20121;-73
2023/06/28 01:52:00;;;;;;;0.10;0.10;;;;;;;14.89;80.12;99125.63;5043185;28;20079;-73
2023/06/28 01:54:28;;;;;;;0.15;0.15;;;;;;;14.96;79.79;99134.22;5070472;28;20067;-74
2023/06/28 01:56:55;;;;;;;0.10;0.10;;;;;;;15.01;79.13;99133.28;5083529;28;20048;-73
2023/06/28 01:59:23;;;;;;;0.20;0.20;;;;;;;15.03;79.12;99129.03;5080834;28;20056;-73
2023/06/28 02:01:49;;;;;;;;;;;;;;;15.01;78.94;99134.06;5063577;28;20036;-74
2023/06/28 02:04:16;;;;;;;0.10;0.10;;;;;;;15.00;78.76;99126.94;5088496;28;19947;-73
2023/06/28 02:06:42;;;;;;;0.20;0.20;;;;;;;14.96;78.73;99116.88;5087046;28;20048;-73
2023/06/28 02:09:08;;;;;;;0.20;0.20;;;;;;;14.88;79.28;99111.06;5086825;28;20067;-74
2023/06/28 02:11:34;;;;;;;0.20;0.20;;;;;;;14.99;79.33;99116.28;5085259;28;20052;-73
2023/06/28 02:14:01;;;;;;;0.10;0.10;;;;;;;14.96;79.69;99122.41;5099997;28;20066;-73
2023/06/28 02:16:30;;;;;;;0.10;0.10;;;;;;;14.91;80.06;99122.56;5105718;27;20040;-73
2023/06/28 02:18:57;;;;;;;0.10;0.10;;;;;;;14.89;80.06;99120.94;5106977;28;20040;-73
2023/06/28 02:21:23;;;;;;;0.10;0.10;;;;;;;14.92;80.31;99127.75;5107213;28;20063;-74
2023/06/28 02:23:49;;;;;;;0.20;0.20;;;;;;;14.95;80.46;99120.78;5106859;27;20043;-73
2023/06/28 02:26:17;;;;;;;0.10;0.10;;;;;;;14.92;80.18;99097.47;5108823;27;20097;-74
2023/06/28 02:28:45;;;;;;;0.15;0.15;;;;;;;15.06;80.14;99124.03;5090423;28;20541;-73
2023/06/28 02:31:13;;;;;;;0.20;0.20;;;;;;;15.04;80.09;99116.09;5087968;28;20043;-73
2023/06/28 02:33:41;;;;;;;0.20;0.20;;;;;;;15.11;80.14;99121.13;5091183;28;20055;-73
2023/06/28 02:36:07;;;;;;;0.10;0.10;;;;;;;15.10;79.78;99134.09;5067549;28;20044;-73
2023/06/28 02:38:33;;;;;;;0.20;0.20;;;;;;;15.04;79.96;99129.88;5045740;28;20045;-73
2023/06/28 02:40:59;;;;;;;0.10;0.10;;;;;;;14.95;80.34;99123.53;5086199;28;20052;-73
2023/06/28 02:43:25;;;;;;;0.10;0.10;;;;;;;14.94;80.61;99141.19;5087331;28;20159;-73
2023/06/28 02:45:52;;;;;;;0.10;0.10;;;;;;;14.89;80.97;99126.44;5103366;28;20047;-73
2023/06/28 02:48:18;;;;;;;0.20;0.20;;;;;;;14.93;81.25;99134.06;5107850;28;20634;-73
2023/06/28 02:50:46;;;;;;;0.20;0.20;;;;;;;14.98;81.43;99142.16;5104581;28;20055;-74
2023/06/28 02:53:15;;;;;;;0.20;0.20;;;;;;;15.00;81.41;99137.94;5088366;28;20060;-73
2023/06/28 02:55:41;;;;;;;0.20;0.20;;;;;;;15.08;81.41;99133.59;5090244;28;20115;-73
2023/06/28 02:58:08;;;;;;;0.20;0.20;;;;;;;15.17;81.64;99133.59;5070814;28;20135;-73
2023/06/28 03:00:37;;;;;;;0.20;0.20;;;;;;;15.28;81.00;99140.44;5054747;28;20426;-73
2023/06/28 03:03:04;;;;;;;0.20;0.20;;;;;;;15.40;80.48;99141.75;5087657;28;20051;-71
2023/06/28 03:05:31;;;;;;;0.20;0.20;;;;;;;15.36;79.55;99136.06;5108218;28;20052;-73
2023/06/28 03:07:58;;;;;;;0.20;0.20;;;;;;;15.35;79.85;99133.63;5108491;27;20059;-73
2023/06/28 03:10:25;;;;;;;0.20;0.20;;;;;;;15.32;79.26;99121.31;5107883;28;20134;-73
2023/06/28 03:12:51;;;;;;;0.20;0.20;;;;;;;15.43;78.84;99135.59;5108407;28;20236;-73
2023/06/28 03:15:17;;;;;;;0.20;0.20;;;;;;;15.40;78.41;99139.78;5105093;28;20167;-73
2023/06/28 03:17:44;;;;;;;0.20;0.20;;;;;;;15.36;78.57;99136.06;5066774;28;20055;-73
2023/06/28 03:20:13;;;;;;;0.20;0.20;;;;;;;15.43;78.43;99136.38;5047497;28;20040;-74
2023/06/28 03:22:39;;;;;;;0.20;0.20;;;;;;;15.51;78.04;99136.72;5081850;28;20050;-73
2023/06/28 03:25:08;;;;;;;0.20;0.20;;;;;;;15.57;77.48;99143.69;5090156;28;20304;-71
2023/06/28 03:27:35;;;;;;;0.20;0.20;;;;;;;15.44;77.05;99139.97;5103388;28;20359;-72
2023/06/28 03:30:04;;;;;;;0.20;0.20;;;;;;;15.38;77.50;99141.25;5102455;28;20071;-72
2023/06/28 03:32:35;;;;;;;0.20;0.20;;;;;;;15.42;77.75;99131.22;5065443;28;20048;-74
2023/06/28 03:35:02;;;;;;;0.20;0.20;;;;;;;15.51;77.72;99137.50;5086433;28;20086;-72
2023/06/28 03:37:32;;;;;;;0.20;0.20;;;;;;;15.68;77.20;99133.13;5050601;28;20590;-73
2023/06/28 03:39:58;;;;;;;0.20;0.20;;;;;;;15.76;76.57;99131.50;5084314;28;20168;-73
2023/06/28 03:42:26;;;;;;;0.20;0.20;;;;;;;15.82;76.14;99128.25;5082726;28;20518;-73
2023/06/28 03:44:52;;;;;;;0.20;0.20;;;;;;;15.87;75.18;99132.78;5095754;28;20142;-73
2023/06/28 03:47:19;;;;;;;0.20;0.20;;;;;;;15.86;75.48;99133.94;5101939;28;20050;-74
2023/06/28 03:49:47;;;;;;;0.20;0.20;;;;;;;15.95;75.37;99137.53;5084221;28;20141;-73
2023/06/28 03:52:14;;;;;;;0.20;0.20;;;;;;;15.97;75.05;99138.00;5051260;28;20552;-73
2023/06/28 03:54:40;;;;;;;0.20;0.20;;;;;;;15.98;74.63;99136.03;5086049;28;20040;-73
2023/06/28 03:57:07;;;;;;;0.20;0.20;;;;;;;16.02;74.46;99129.53;5065444;28;20220;-73
2023/06/28 03:59:35;;;;;;;0.20;0.20;;;;;;;15.99;74.57;99132.97;5099183;28;20047;-73
2023/06/28 04:02:01;;;;;;;0.20;0.20;;;;;;;15.97;74.36;99121.47;5072474;28;20047;-73
2023/06/28 04:04:27;;;;;;;0.28;0.28;;;;;;;16.05;74.24;99132.78;5082797;28;20082;-73
2023/06/28 04:06:54;;;;;;;0.20;0.20;;;;;;;16.05;74.03;99122.56;5083201;28;20394;-73
2023/06/28 04:09:20;;;;;;;0.20;0.20;;;;;;;16.03;73.54;99127.63;5084527;28;20093;-73
2023/06/28 04:11:47;;;;;;;0.20;0.20;;;;;;;16.00;73.62;99133.75;5073805;28;20134;-73
2023/06/28 04:14:13;;;;;;;0.20;0.20;;;;;;;16.05;73.76;99125.34;5096589;28;20074;-73
2023/06/28 04:16:40;;;;;;;0.20;0.20;;;;;;;16.07;73.64;99123.06;5085101;28;20055;-73
2023/06/28 04:19:07;;;;;;;0.20;0.20;;;;;;;16.17;73.50;99132.91;5092664;28;20040;-73
2023/06/28 04:21:33;;;;;;;0.20;0.20;;;;;;;16.23;72.98;99131.59;5085025;28;20044;-74
2023/06/28 04:24:00;;;;;;;0.20;0.20;;;;;;;16.33;72.96;99124.94;5082415;28;20051;-73
2023/06/28 04:26:26;;;;;;;0.20;0.20;;;;;;;16.45;72.08;99127.78;5064952;28;20435;-73
2023/06/28 04:28:52;;;;;;;0.20;0.20;;;;;;;16.50;71.20;99129.56;5073712;28;20095;-73
2023/06/28 04:31:19;;;;;;;0.20;0.20;;;;;;;16.51;71.17;99135.91;5077221;28;20036;-74
2023/06/28 04:33:46;;;;;;;0.20;0.20;;;;;;;16.58;70.96;99128.72;5080265;28;20135;-74
2023/06/28 04:36:12;;;;;;;0.20;0.20;;;;;;;16.66;70.10;99126.25;5062053;28;20052;-74
2023/06/28 04:38:39;;;;;;;0.25;0.25;;;;;;;16.81;70.03;99135.94;5044600;28;20044;-74
2023/06/28 04:41:05;;;;;;;0.20;0.20;;;;;;;16.90;68.72;99125.63;5054800;28;20059;-72
2023/06/28 04:43:40;;;;;;;0.30;0.30;;;;;;;17.01;68.25;99112.25;5086167;28;20051;-74
2023/06/28 04:46:09;;;;;;;0.30;0.30;;;;;;;17.27;67.52;99108.53;5069382;28;20041;-74
2023/06/28 04:48:35;;;;;;;0.30;0.30;;;;;;;17.58;66.04;99107.28;5064259;28;20055;-74
2023/06/28 04:51:03;;;;;;;0.30;0.30;;;;;;;17.73;64.74;99100.34;5046210;28;20045;-73
2023/06/28 04:53:29;;;;;;;0.30;0.30;;;;;;;17.86;64.24;99096.44;5062250;28;20051;-74
2023/06/28 04:55:55;;;;;;;0.30;0.30;;;;;;;17.99;63.86;99090.94;5076748;28;20046;-74
2023/06/28 04:58:22;;;;;;;0.30;0.30;;;;;;;17.98;63.03;99090.16;5085180;28;20048;-75
2023/06/28 05:00:49;;;;;;;0.30;0.30;;;;;;;17.94;63.21;99097.50;5082488;28;20044;-73
2023/06/28 05:03:15;;;;;;;0.30;0.30;;;;;;;18.00;63.33;99092.56;5083262;28;20043;-73
2023/06/28 05:05:42;;;;;;;0.30;0.30;;;;;;;18.19;62.66;99102.34;5086643;28;20123;-73
2023/06/28 05:08:09;;;;;;;0.30;0.30;;;;;;;18.16;61.96;99103.81;5102438;28;20039;-73
2023/06/28 05:10:36;;;;;;;0.22;0.22;;;;;;;18.15;62.50;99099.44;5103663;28;20055;-73
2023/06/28 05:13:03;;;;;;;0.30;0.30;;;;;;;18.20;62.66;99090.91;5052682;28;20085;-74
2023/06/28 05:15:32;;;;;;;0.30;0.30;;;;;;;18.21;62.07;99088.97;5072137;28;20118;-73
2023/06/28 05:17:58;;;;;;;0.30;0.30;;;;;;;18.26;61.92;99089.56;5070476;28;20073;-74
2023/06/28 05:20:25;;;;;;;0.30;0.30;;;;;;;18.38;61.77;99082.38;4728276;28;9999864;-74
2023/06/28 05:23:10;;;;;;;0.30;0.30;;;;;;;18.63;61.43;99080.44;5046170;28;20503;-75
2023/06/28 05:25:36;;;;;;;0.30;0.30;;;;;;;18.88;60.71;99080.41;5064168;28;20383;-74
2023/06/28 05:28:03;;;;;;;0.30;0.30;;;;;;;18.90;59.83;99080.09;5082461;28;20415;-75
2023/06/28 05:30:29;;;;;;;0.30;0.30;;;;;;;18.95;59.67;99077.84;5078653;28;20044;-73
2023/06/28 05:32:55;;;;;;;0.30;0.30;;;;;;;18.98;59.85;99071.63;5078478;28;20043;-74
2023/06/28 05:35:22;;;;;;;0.30;0.30;;;;;;;19.02;59.09;99076.50;5064720;28;20052;-74
2023/06/28 05:37:48;;;;;;;0.30;0.30;;;;;;;18.97;59.43;99071.97;5057807;28;20059;-74
2023/06/28 05:40:16;;;;;;;0.30;0.30;;;;;;;19.13;59.01;99080.41;5054587;28;20431;-74
2023/06/28 05:42:42;;;;;;;0.30;0.30;;;;;;;19.19;58.58;99079.00;5071515;28;20525;-75
2023/06/28 05:45:09;;;;;;;0.30;0.30;;;;;;;19.22;58.96;99067.22;5069939;28;20559;-74
2023/06/28 05:47:35;;;;;;;0.30;0.30;;;;;;;19.35;58.60;99072.72;5079266;28;20036;-74
2023/06/28 05:50:02;;;;;;;0.30;0.30;;;;;;;19.40;58.21;99062.19;5087311;28;20058;-74
2023/06/28 05:52:30;;;;;;;0.30;0.30;;;;;;;19.47;58.18;99066.31;5097454;28;20051;-74
2023/06/28 05:54:56;;;;;;;0.45;0.30;;;;;;;19.54;57.32;99069.31;5082224;28;20047;-73
2023/06/28 05:57:24;;;;;;;0.30;0.30;;;;;;;19.55;57.40;99068.94;5049177;28;20180;-75
2023/06/28 05:59:50;;;;;;;0.30;0.30;;;;;;;19.60;57.26;99067.88;5085048;28;20046;-74
2023/06/28 06:02:18;;;;;;;0.30;0.30;;;;;;;19.70;56.92;99066.56;5103567;28;20058;-74
2023/06/28 06:04:45;;;;;;;0.30;0.30;;;;;;;19.77;56.48;99065.94;5075709;28;20121;-75
2023/06/28 06:07:12;;;;;;;0.30;0.30;;;;;;;19.65;56.87;99069.59;5098292;28;20510;-74
2023/06/28 06:09:38;;;;;;;0.30;0.30;;;;;;;19.69;56.61;99064.94;5090230;28;20051;-74
2023/06/28 06:12:05;;;;;;;0.30;0.30;;;;;;;19.55;56.91;99060.59;5088087;28;20514;-74
2023/06/28 06:14:34;;;;;;;0.30;0.30;;;;;;;19.63;57.07;99066.38;5102888;28;20047;-74
2023/06/28 06:17:01;;;;;;;0.30;0.30;;;;;;;19.74;56.84;99066.66;5080068;28;20482;-74
2023/06/28 06:19:27;;;;;;;0.30;0.30;;;;;;;19.80;56.67;99056.91;5077771;28;20042;-73
2023/06/28 06:21:53;;;;;;;0.30;0.30;;;;;;;19.93;55.92;99050.16;5048653;28;20048;-73
2023/06/28 06:24:19;;;;;;;0.30;0.30;;;;;;;20.04;55.76;99067.06;5084811;28;20044;-73
2023/06/28 06:26:46;;;;;;;0.30;0.30;;;;;;;20.19;55.71;99065.47;5089842;28;20032;-73
2023/06/28 06:29:12;;;;;;;0.30;0.30;;;;;;;20.24;55.14;99070.75;5089716;28;20413;-74
2023/06/28 06:31:40;;;;;;;0.32;0.32;;;;;;;20.16;55.36;99074.53;5086214;28;20472;-73
2023/06/28 06:34:06;;;;;;;0.30;0.30;;;;;;;20.16;54.77;99068.97;5097475;28;20082;-73
2023/06/28 06:36:32;;;;;;;0.30;0.30;;;;;;;20.12;55.29;99074.44;5104175;28;20051;-74
2023/06/28 06:38:59;;;;;;;0.30;0.30;;;;;;;20.10;55.15;99071.22;5103142;28;20134;-73
2023/06/28 06:41:26;;;;;;;0.30;0.30;;;;;;;20.17;55.00;99072.56;5105330;28;20491;-74
2023/06/28 06:43:52;;;;;;;;;;;;;;;20.19;54.50;99065.47;5051938;28;20159;-75
2023/06/28 06:46:20;;;;;;;0.30;0.30;;;;;;;20.17;54.34;99069.78;5093145;28;20463;-74
2023/06/28 06:48:47;;;;;;;0.30;0.30;;;;;;;20.23;54.09;99068.34;5063445;28;20355;-73
2023/06/28 06:51:14;;;;;;;0.30;0.30;;;;;;;20.20;53.96;99072.66;5102409;28;20097;-73
2023/06/28 06:53:41;;;;;;;0.30;0.30;;;;;;;20.33;53.58;99062.25;5085503;28;20051;-74
2023/06/28 06:56:07;;;;;;;0.40;0.40;;;;;;;20.50;53.69;99066.63;5096220;28;20064;-73
2023/06/28 06:58:33;;;;;;;0.35;0.35;;;;;;;20.60;52.87;99070.84;5086559;28;20113;-73
2023/06/28 07:01:03;;;;;;;0.30;0.30;;;;;;;20.66;52.98;99061.03;5087594;28;20024;-73
2023/06/28 07:03:31;;;;;;;0.30;0.30;;;;;;;20.86;52.34;99061.16;5070481;28;20520;-73
2023/06/28 07:05:59;;;;;;;0.30;0.30;;;;;;;21.02;51.75;99054.72;5088404;28;20044;-73
2023/06/28 07:08:25;;;;;;;0.30;0.30;;;;;;;21.01;51.65;99048.34;5091139;28;20054;-73
2023/06/28 07:10:51;;;;;;;0.40;0.40;;;;;;;21.37;50.80;99046.31;5100258;28;20105;-73
2023/06/28 07:13:17;;;;;;;0.40;0.40;;;;;;;21.72;50.03;99038.28;5087016;28;20530;-73
2023/06/28 07:15:44;;;;;;;0.40;0.40;;;;;;;21.90;49.61;99031.06;5086342;28;20423;-73
2023/06/28 07:18:10;;;;;;;0.40;0.40;;;;;;;22.20;48.50;99027.59;5088596;28;20044;-72
2023/06/28 07:20:36;;;;;;;0.40;0.40;;;;;;;22.39;48.18;99031.47;5087905;28;20472;-73
2023/06/28 07:23:04;;;;;;;0.40;0.40;;;;;;;22.49;47.73;99018.91;5077538;28;20051;-73
2023/06/28 07:25:32;;;;;;;0.40;0.40;;;;;;;22.70;47.48;99017.59;5085528;28;20044;-73
2023/06/28 07:27:58;;;;;;;0.40;0.40;;;;;;;22.82;47.13;99020.16;5085867;28;20063;-73
2023/06/28 07:30:24;;;;;;;0.40;0.40;;;;;;;22.98;46.76;99016.41;5089450;28;20051;-73
2023/06/28 07:32:51;;;;;;;0.40;0.40;;;;;;;23.11;46.24;99017.75;5086465;28;20044;-72
2023/06/28 07:35:17;;;;;;;0.40;0.40;;;;;;;23.20;45.93;99011.91;5066046;28;20098;-73
2023/06/28 07:37:43;;;;;;;0.40;0.40;;;;;;;23.37;45.15;98993.81;5079405;28;20048;-74
2023/06/28 07:40:13;;;;;;;0.40;0.40;;;;;;;23.63;44.59;98984.50;5051993;28;20295;-72
2023/06/28 07:42:41;;;;;;;0.40;0.40;;;;;;;23.90;44.42;98991.94;5066090;28;20044;-74
2023/06/28 07:45:08;;;;;;;0.40;0.40;;;;;;;24.05;43.10;98987.31;5083938;28;20538;-73
2023/06/28 07:47:36;;;;;;;0.40;0.40;;;;;;;24.19;41.48;98998.56;5084750;28;20115;-73
2023/06/28 07:50:02;;;;;;;0.40;0.40;;;;;;;24.24;40.57;98991.03;5083641;28;20143;-73
2023/06/28 07:52:31;;;;;;;0.38;0.38;;;;;;;24.34;40.28;98991.13;5085941;28;20071;-73
2023/06/28 07:54:57;;;;;;;0.40;0.40;;;;;;;24.47;39.83;98986.00;5081447;28;20043;-73
2023/06/28 07:57:25;;;;;;;0.40;0.40;;;;;;;24.41;39.82;98981.97;5087149;28;20056;-73
2023/06/28 07:59:51;;;;;;;0.40;0.40;;;;;;;24.28;39.89;98981.50;5080756;28;20605;-74
2023/06/28 08:02:17;;;;;;;0.40;0.40;;;;;;;24.39;39.59;98969.59;5083775;28;20044;-72
2023/06/28 08:04:44;;;;;;;0.40;0.40;;;;;;;24.64;38.89;98984.50;5085828;28;20048;-72
2023/06/28 08:07:10;;;;;;;0.40;0.40;;;;;;;24.67;39.08;98977.34;5083117;28;20456;-73
2023/06/28 08:09:36;;;;;;;0.50;0.50;;;;;;;24.93;38.29;98978.28;5083255;28;20147;-73
2023/06/28 08:12:03;;;;;;;0.40;0.40;;;;;;;24.92;38.58;98973.91;5083528;28;20040;-74
2023/06/28 08:14:30;;;;;;;0.43;0.43;;;;;;;24.98;38.58;98971.53;5081810;28;20131;-73
2023/06/28 08:16:57;;;;;;;0.40;0.40;;;;;;;24.86;38.41;98975.47;5084526;28;20084;-73
2023/06/28 08:19:25;;;;;;;0.50;0.50;;;;;;;24.67;38.58;98974.56;5086159;28;20507;-72
2023/06/28 08:21:54;;;;;;;0.30;0.30;;;;;;;24.52;37.86;98979.25;5081598;28;20071;-73
2023/06/28 08:24:23;;;;;;;0.30;0.30;;;;;;;24.21;38.17;98982.25;5070138;28;20138;-73
2023/06/28 08:26:52;;;;;;;0.30;0.30;;;;;;;24.03;38.99;98984.91;5067096;28;20083;-73
2023/06/28 08:29:21;;;;;;;0.40;0.40;;;;;;;23.72;39.44;98986.97;5084151;28;20048;-72
2023/06/28 08:31:50;;;;;;;0.38;0.38;;;;;;;23.48;40.10;98982.75;5081833;28;20059;-72
2023/06/28 08:34:16;;;;;;;0.40;0.40;;;;;;;23.38;40.34;98984.25;5079917;28;20055;-73
2023/06/28 08:36:43;;;;;;;0.40;0.40;;;;;;;23.34;40.70;98978.63;5088136;28;20040;-73
2023/06/28 08:39:09;;;;;;;0.30;0.30;;;;;;;23.35;40.68;98982.25;5074158;28;20051;-73
2023/06/28 08:41:37;;;;;;;0.30;0.30;;;;;;;23.23;40.65;98977.66;5084402;28;20077;-74
2023/06/28 08:44:06;;;;;;;0.30;0.30;;;;;;;23.05;41.68;98986.63;5083765;28;20044;-74
2023/06/28 08:46:34;;;;;;;0.30;0.30;;;;;;;23.07;41.68;98980.69;5079960;28;20059;-72
2023/06/28 08:49:04;;;;;;;0.30;0.30;;;;;;;23.07;41.88;98975.09;5047412;28;20139;-73
2023/06/28 08:51:32;;;;;;;0.30;0.30;;;;;;;23.18;41.53;98978.03;5079371;28;20138;-73
2023/06/28 08:53:59;;;;;;;0.30;0.30;;;;;;;23.19;41.06;98974.88;5082814;28;20044;-73
2023/06/28 08:56:27;;;;;;;0.40;0.40;;;;;;;23.23;41.01;98963.72;5084437;28;20279;-73
2023/06/28 08:58:56;;;;;;;0.40;0.40;;;;;;;23.23;40.37;98969.31;5081074;28;20158;-73
2023/06/28 09:01:23;;;;;;;0.40;0.40;;;;;;;23.12;39.04;98969.19;5086415;28;20051;-72
2023/06/28 09:03:50;;;;;;;0.30;0.30;;;;;;;22.95;38.82;98963.03;5082890;28;20044;-73
2023/06/28 09:06:18;;;;;;;0.43;0.40;;;;;;;22.92;38.11;98960.19;5065316;28;20345;-73
2023/06/28 09:08:45;;;;;;;0.32;0.32;;;;;;;22.96;38.42;98961.06;5084705;28;20040;-72
2023/06/28 09:11:11;;;;;;;0.30;0.30;;;;;;;23.02;38.72;98964.28;5082603;28;20054;-71
2023/06/28 09:13:39;;;;;;;0.40;0.40;;;;;;;23.08;38.57;98954.41;5086199;28;20135;-73
2023/06/28 09:16:09;;;;;;;0.30;0.30;;;;;;;23.14;38.25;98952.88;5083327;28;20049;-72
2023/06/28 09:30:51;;;;;;;0.40;0.40;;;;;;;23.72;36.15;98963.84;5094774;27;20432;-70
2023/06/28 09:33:18;;;;;;;0.30;0.30;;;;;;;23.74;35.88;98953.91;5069958;28;20135;-71
2023/06/28 09:35:44;;;;;;;;;;;;;;;23.79;36.08;98944.41;5060640;28;20048;-71
2023/06/28 09:38:10;;;;;;;0.30;0.30;;;;;;;23.61;36.17;98936.66;5083148;28;20029;-70
2023/06/28 09:40:36;;;;;;;0.30;0.30;;;;;;;23.39;36.67;98943.22;5084468;28;20545;-71
2023/06/28 09:43:14;;;;;;;0.30;0.30;;;;;;;23.00;37.56;98947.94;5068965;28;20052;-72
2023/06/28 09:45:40;;;;;;;0.30;0.30;;;;;;;22.63;38.01;98941.13;5073601;28;20099;-71
2023/06/28 09:48:08;;;;;;;0.30;0.30;;;;;;;22.34;38.77;98945.47;5078251;28;20106;-72
2023/06/28 09:50:38;;;;;;;0.20;0.20;;;;;;;22.12;38.90;98945.13;5078506;28;20457;-71
2023/06/28 09:53:09;;;;;;;0.22;0.22;;;;;;;21.80;39.58;98923.16;4895751;22;10002919;-74
2023/06/28 09:55:37;;;;;;;0.20;0.20;;;;;;;21.58;39.80;98924.75;5035502;28;20719;-73
2023/06/28 09:58:04;;;;;;;0.30;0.30;;;;;;;21.43;40.28;98915.38;5031983;28;20068;-73
2023/06/28 10:00:31;;;;;;;0.30;0.30;;;;;;;21.34;40.55;98915.63;5036899;28;20061;-72
2023/06/28 10:02:58;;;;;;;;;;;;;;;21.28;40.85;98917.06;5036758;28;20813;-72
2023/06/28 10:05:27;;;;;;;;;;;;;;;21.17;41.84;98914.09;5024051;28;19925;-72
2023/06/28 10:07:54;;;;;;;0.20;0.20;;;;;;;21.01;41.65;98925.31;5035525;28;19932;-72
2023/06/28 10:10:20;;;;;;;;;;;;;;;20.85;42.20;98917.88;5038462;28;20047;-72
2023/06/28 10:12:49;;;;;;;0.20;0.20;;;;;;;20.77;42.08;98925.22;5036501;28;20307;-73
2023/06/28 10:15:21;;;;;;;0.20;0.20;;;;;;;20.75;41.98;98916.44;5033516;28;20060;-72
2023/06/28 10:17:49;;;;;;;0.20;0.20;;;;;;;20.77;42.16;98914.13;5031951;28;20514;-73
2023/06/28 10:20:15;;;;;;;0.20;0.20;;;;;;;20.74;42.68;98914.81;5036201;28;20430;-72
2023/06/28 10:22:43;;;;;;;0.30;0.30;;;;;;;20.77;42.92;98907.75;5040614;28;20053;-72
2023/06/28 10:25:13;;;;;;;0.30;0.30;;;;;;;20.85;42.67;98906.75;5033416;28;20428;-72
2023/06/28 10:27:40;;;;;;;0.20;0.20;;;;;;;20.99;42.55;98897.88;5031993;28;20080;-72
2023/06/28 10:30:07;;;;;;;0.30;0.30;;;;;;;21.13;42.33;98905.69;5027620;28;20413;-73
2023/06/28 10:32:35;;;;;;;0.20;0.20;;;;;;;21.34;41.85;98908.06;5018617;28;20082;-72
2023/06/28 10:35:02;;;;;;;0.30;0.30;;;;;;;21.46;41.92;98906.28;5022358;28;20041;-72
2023/06/28 10:37:30;;;;;;;0.30;0.30;;;;;;;21.46;41.83;98909.06;5017848;28;20050;-72
2023/06/28 10:39:58;;;;;;;0.30;0.30;;;;;;;21.49;41.99;98908.31;5018640;28;20599;-72
2023/06/28 10:42:25;;;;;;;0.30;0.30;;;;;;;21.56;41.89;98904.84;5004341;28;20421;-72
2023/06/28 10:44:52;;;;;;;0.30;0.30;;;;;;;21.63;41.70;98896.66;5023332;28;20041;-73
2023/06/28 10:47:19;;;;;;;0.30;0.30;;;;;;;21.71;41.32;98898.38;5017741;28;20440;-72
2023/06/28 10:50:09;;;;;;;0.30;0.30;;;;;;;21.89;41.21;98897.88;5021931;28;20049;-72
2023/06/28 10:52:42;;;;;;;0.30;0.30;;;;;;;22.09;41.19;98901.34;5020364;28;20554;-73
2023/06/28 10:55:11;;;;;;;0.30;0.30;;;;;;;22.30;40.60;98902.84;5025606;28;20089;-73
2023/06/28 10:57:38;;;;;;;0.30;0.30;;;;;;;22.51;40.41;98889.25;5023129;28;20059;-72
2023/06/28 11:00:05;;;;;;;;;;;;;;;22.74;40.14;98890.31;5026106;28;20053;-72
2023/06/28 11:02:49;;;;;;;;;;;;;;;22.80;39.79;98880.44;5025212;28;19960;-72
2023/06/28 11:05:39;;;;;;;0.30;0.30;;;;;;;22.84;39.27;98884.06;5010415;28;20018;-73
2023/06/28 11:08:09;;;;;;;0.30;0.30;;;;;;;23.02;39.26;98875.91;5024097;28;20533;-72
2023/06/28 11:10:39;;;;;;;0.30;0.30;;;;;;;23.26;38.42;98873.81;5020940;28;20050;-73
2023/06/28 11:13:08;;;;;;;0.30;0.30;;;;;;;23.47;37.70;98864.81;5018809;28;20054;-73
2023/06/28 11:15:35;;;;;;;0.40;0.40;;;;;;;23.81;37.17;98868.69;5021876;28;20524;-73
2023/06/28 11:18:11;;;;;;;0.30;0.30;;;;;;;24.06;36.67;98872.44;5005397;28;20041;-73
2023/06/28 11:20:56;;;;;;;0.30;0.30;;;;;;;24.12;36.22;98878.47;5017994;28;20396;-73
2023/06/28 11:23:38;;;;;;;0.40;0.40;;;;;;;23.96;36.66;98872.34;5022209;28;20523;-72
2023/06/28 11:26:07;;;;;;;0.30;0.30;;;;;;;23.85;36.15;98864.69;5017433;28;20042;-72
2023/06/28 11:28:35;;;;;;;0.40;0.40;;;;;;;23.73;36.43;98876.19;5006991;28;20061;-72
2023/06/28 11:31:14;;;;;;;0.30;0.30;;;;;;;23.60;36.70;98870.09;5023427;28;20504;-72
2023/06/28 11:33:42;;;;;;;0.30;0.30;;;;;;;23.48;36.60;98874.78;5017369;28;20136;-72
2023/06/28 11:36:10;;;;;;;0.30;0.30;;;;;;;23.41;37.12;98871.13;5016868;28;20050;-73
2023/06/28 11:38:37;;;;;;;0.30;0.30;;;;;;;23.47;36.69;98859.22;5020047;28;20148;-73
2023/06/28 11:41:05;;;;;;;0.30;0.30;;;;;;;23.35;36.86;98854.75;5024001;28;20061;-72
2023/06/28 11:43:31;;;;;;;0.30;0.30;;;;;;;23.30;36.98;98855.09;5023696;28;20077;-73
2023/06/28 11:45:59;;;;;;;0.40;0.40;;;;;;;23.35;37.03;98859.53;5020625;28;20056;-73
2023/06/28 11:48:25;;;;;;;0.30;0.30;;;;;;;23.36;37.08;98847.19;5024933;28;20045;-73
2023/06/28 11:50:59;;;;;;;0.30;0.30;;;;;;;23.28;36.76;98865.03;5005473;28;20525;-72